Time,TemperatureF,DewpointF,PressureIn,WindDirection,WindDirectionDegrees,WindSpeedMPH,WindSpeedGustMPH,Humidity,HourlyPrecipIn,Conditions,Clouds,dailyrainin,SoftwareType,DateUTC
2013-02-28 00:00:00,28.6,27.8,29.82,ESE,117,0.0,0.0,97,0.04,OVC,OVC,0.12,WeatherDisplay:10.34,2013-02-28 05:00:00,
2013-02-28 00:01:00,28.6,27.8,29.82,NE,44,0.0,0.0,97,0.04,OVC,OVC,0.00,WeatherDisplay:10.34,2013-02-28 05:01:00,
2013-02-28 00:02:00,28.4,27.7,29.82,ENE,70,0.0,0.0,97,0.04,OVC,OVC,0.00,WeatherDisplay:10.34,2013-02-28 05:02:00,
2013-02-28 00:07:00,28.6,27.8,29.82,ENE,57,0.0,0.0,97,0.04,OVC,OVC,0.00,WeatherDisplay:10.34,2013-02-28 05:07:00,
2013-02-28 00:12:00,28.6,27.8,29.82,East,81,0.0,0.0,97,0.04,OVC,OVC,0.00,WeatherDisplay:10.34,2013-02-28 05:12:00,
2013-02-28 00:17:00,28.6,27.8,29.82,NE,56,0.0,0.0,97,0.04,OVC,OVC,0.00,WeatherDisplay:10.34,2013-02-28 05:17:00,
2013-02-28 00:22:00,28.6,27.8,29.82,NE,46,0.0,0.0,97,0.04,OVC,OVC,0.00,WeatherDisplay:10.34,2013-02-28 05:22:00,
2013-02-28 00:27:00,28.6,27.8,29.82,NE,44,0.0,0.0,97,0.04,OVC,OVC,0.00,WeatherDisplay:10.34,2013-02-28 05:27:00,
2013-02-28 00:32:00,28.6,27.8,29.82,ESE,113,0.0,0.0,97,0.00,OVC,OVC,0.00,WeatherDisplay:10.34,2013-02-28 05:32:00,
2013-02-28 00:37:00,28.6,27.8,29.82,ENE,63,0.0,0.0,97,0.00,OVC,OVC,0.00,WeatherDisplay:10.34,2013-02-28 05:37:00,
2013-02-28 00:42:00,28.6,27.8,29.82,NE,47,0.0,0.0,97,0.00,OVC,OVC,0.00,WeatherDisplay:10.34,2013-02-28 05:42:00,
2013-02-28 00:47:00,28.4,27.7,29.82,ESE,108,0.0,0.0,97,0.00,OVC,OVC,0.00,WeatherDisplay:10.34,2013-02-28 05:47:00,
2013-02-28 00:52:00,28.6,27.8,29.82,ENE,57,0.0,0.0,97,0.00,OVC,OVC,0.00,WeatherDisplay:10.34,2013-02-28 05:52:00,
2013-02-28 00:57:00,28.6,27.8,29.82,East,84,0.0,0.0,97,0.00,OVC,OVC,0.00,WeatherDisplay:10.34,2013-02-28 05:57:00,
2013-02-28 01:02:00,28.6,27.8,29.82,NE,34,0.0,0.0,97,0.00,OVC,OVC,0.00,WeatherDisplay:10.34,2013-02-28 06:02:00,
2013-02-28 01:07:00,28.6,27.8,29.82,ENE,58,0.0,0.0,97,0.00,OVC,OVC,0.00,WeatherDisplay:10.34,2013-02-28 06:07:00,
2013-02-28 01:12:00,28.6,27.8,29.82,ENE,60,0.0,0.0,97,0.00,OVC,OVC,0.00,WeatherDisplay:10.34,2013-02-28 06:12:00,
2013-02-28 01:17:00,28.4,27.7,29.79,ESE,103,0.0,0.0,97,0.00,OVC,OVC,0.00,WeatherDisplay:10.34,2013-02-28 06:17:00,
2013-02-28 01:22:00,28.4,27.7,29.79,NNE,29,0.0,0.0,97,0.00,OVC,OVC,0.00,WeatherDisplay:10.34,2013-02-28 06:22:00,
2013-02-28 01:27:00,28.4,27.7,29.79,ENE,68,0.0,0.0,97,0.00,OVC,OVC,0.00,WeatherDisplay:10.34,2013-02-28 06:27:00,
2013-02-28 01:32:00,28.4,27.7,29.79,ENE,65,0.0,0.0,97,0.00,OVC,OVC,0.00,WeatherDisplay:10.34,2013-02-28 06:32:00,
2013-02-28 01:37:00,28.4,27.7,29.79,NNE,21,0.0,0.0,97,0.00,OVC,OVC,0.00,WeatherDisplay:10.34,2013-02-28 06:37:00,
2013-02-28 01:42:00,28.4,27.7,29.79,NE,48,0.0,0.0,97,0.00,OVC,OVC,0.00,WeatherDisplay:10.34,2013-02-28 06:42:00,
2013-02-28 01:47:00,28.4,27.7,29.79,ENE,64,0.0,0.0,97,0.00,OVC,OVC,0.00,WeatherDisplay:10.34,2013-02-28 06:47:00,
2013-02-28 01:52:00,28.4,27.7,29.79,NNE,21,0.0,0.0,97,0.00,OVC,OVC,0.00,WeatherDisplay:10.34,2013-02-28 06:52:00,
2013-02-28 01:57:00,28.4,27.7,29.79,NNE,24,0.0,0.0,97,0.00,OVC,OVC,0.00,WeatherDisplay:10.34,2013-02-28 06:57:00,
2013-02-28 02:02:00,28.4,27.7,29.76,North,356,0.0,0.0,97,0.00,OVC,OVC,0.00,WeatherDisplay:10.34,2013-02-28 07:02:00,
2013-02-28 02:07:00,28.6,27.8,29.76,NE,41,0.0,0.0,97,0.00,OVC,OVC,0.00,WeatherDisplay:10.34,2013-02-28 07:07:00,
2013-02-28 02:12:00,28.6,27.8,29.76,ENE,62,0.0,0.0,97,0.00,OVC,OVC,0.00,WeatherDisplay:10.34,2013-02-28 07:12:00,
2013-02-28 02:17:00,28.6,27.8,29.76,East,88,0.0,0.0,97,0.00,OVC,OVC,0.00,WeatherDisplay:10.34,2013-02-28 07:17:00,
2013-02-28 02:22:00,28.6,27.8,29.76,NNW,340,0.0,0.0,97,0.00,OVC,OVC,0.00,WeatherDisplay:10.34,2013-02-28 07:22:00,
2013-02-28 02:27:00,28.6,27.8,29.76,ENE,74,0.0,0.0,97,0.00,OVC,OVC,0.00,WeatherDisplay:10.34,2013-02-28 07:27:00,
2013-02-28 02:32:00,28.4,27.7,29.76,NE,47,0.0,0.0,97,0.00,OVC,OVC,0.00,WeatherDisplay:10.34,2013-02-28 07:32:00,
2013-02-28 02:37:00,28.6,27.8,29.76,NNW,340,0.0,0.0,97,0.00,OVC,OVC,0.00,WeatherDisplay:10.34,2013-02-28 07:37:00,
2013-02-28 02:42:00,28.6,27.8,29.76,NE,41,0.0,0.0,97,0.00,OVC,OVC,0.00,WeatherDisplay:10.34,2013-02-28 07:42:00,
2013-02-28 02:47:00,28.6,27.8,29.76,NE,34,0.0,0.0,97,0.00,OVC,OVC,0.00,WeatherDisplay:10.34,2013-02-28 07:47:00,
2013-02-28 02:52:00,28.6,27.8,29.76,NE,48,0.0,0.0,97,0.00,OVC,OVC,0.00,WeatherDisplay:10.34,2013-02-28 07:52:00,
2013-02-28 02:57:00,28.6,27.8,29.76,North,351,0.0,0.0,97,0.00,OVC,OVC,0.00,WeatherDisplay:10.34,2013-02-28 07:57:00,
2013-02-28 03:02:00,28.8,28.0,29.76,North,3,0.0,0.0,97,0.00,OVC,OVC,0.00,WeatherDisplay:10.34,2013-02-28 08:02:00,
2013-02-28 03:08:00,28.8,28.0,29.76,ENE,63,0.0,0.0,97,0.00,OVC,OVC,0.00,WeatherDisplay:10.34,2013-02-28 08:08:00,
2013-02-28 03:13:00,28.8,28.0,29.76,NNE,23,0.0,0.0,97,0.00,OVC,OVC,0.00,WeatherDisplay:10.34,2013-02-28 08:13:00,
2013-02-28 03:18:00,28.8,28.0,29.76,NNE,17,0.0,0.0,97,0.00,OVC,OVC,0.00,WeatherDisplay:10.34,2013-02-28 08:18:00,
2013-02-28 03:23:00,28.9,28.2,29.76,NE,56,0.0,0.0,97,0.00,OVC,OVC,0.00,WeatherDisplay:10.34,2013-02-28 08:23:00,
2013-02-28 03:28:00,28.9,28.2,29.76,NE,40,0.0,0.0,97,0.00,OVC,OVC,0.00,WeatherDisplay:10.34,2013-02-28 08:28:00,
2013-02-28 03:33:00,28.9,27.9,29.76,NNE,32,0.0,0.0,96,0.00,OVC,OVC,0.00,WeatherDisplay:10.34,2013-02-28 08:33:00,
2013-02-28 03:38:00,28.9,27.9,29.76,NNW,332,0.0,0.0,96,0.00,OVC,OVC,0.00,WeatherDisplay:10.34,2013-02-28 08:38:00,
2013-02-28 03:43:00,28.9,27.9,29.76,North,8,0.0,0.0,96,0.00,OVC,OVC,0.00,WeatherDisplay:10.34,2013-02-28 08:43:00,
2013-02-28 03:48:00,29.1,28.1,29.76,NNE,23,0.0,0.0,96,0.00,OVC,OVC,0.00,WeatherDisplay:10.34,2013-02-28 08:48:00,
2013-02-28 03:53:00,29.1,28.1,29.76,East,94,0.0,0.0,96,0.00,OVC,OVC,0.00,WeatherDisplay:10.34,2013-02-28 08:53:00,
2013-02-28 03:58:00,29.1,28.1,29.76,NE,44,0.0,0.0,96,0.00,OVC,OVC,0.00,WeatherDisplay:10.34,2013-02-28 08:58:00,
2013-02-28 04:03:00,29.1,28.1,29.76,NNE,27,0.0,0.0,96,0.00,OVC,OVC,0.00,WeatherDisplay:10.34,2013-02-28 09:03:00,
2013-02-28 04:08:00,29.3,28.3,29.76,North,9,0.0,0.0,96,0.00,OVC,OVC,0.00,WeatherDisplay:10.34,2013-02-28 09:08:00,
2013-02-28 04:13:00,29.3,28.0,29.76,NE,42,0.0,0.0,95,0.00,OVC,OVC,0.00,WeatherDisplay:10.34,2013-02-28 09:13:00,
2013-02-28 04:18:00,29.5,28.2,29.76,NNE,30,0.0,0.0,95,0.00,OVC,OVC,0.00,WeatherDisplay:10.34,2013-02-28 09:18:00,
2013-02-28 04:23:00,29.5,28.2,29.76,NNE,30,0.0,0.0,95,0.00,OVC,OVC,0.00,WeatherDisplay:10.34,2013-02-28 09:23:00,
2013-02-28 04:28:00,29.7,28.4,29.76,NNE,15,0.0,0.0,95,0.00,OVC,OVC,0.00,WeatherDisplay:10.34,2013-02-28 09:28:00,
2013-02-28 04:33:00,29.7,28.4,29.76,NNE,24,0.0,0.0,95,0.00,OVC,OVC,0.00,WeatherDisplay:10.34,2013-02-28 09:33:00,
2013-02-28 04:38:00,29.7,28.4,29.76,NNW,345,0.0,0.0,95,0.00,OVC,OVC,0.00,WeatherDisplay:10.34,2013-02-28 09:38:00,
2013-02-28 04:43:00,29.7,28.4,29.76,NNE,17,0.0,0.0,95,0.00,OVC,OVC,0.00,WeatherDisplay:10.34,2013-02-28 09:43:00,
2013-02-28 04:48:00,29.8,28.6,29.76,North,0,0.0,0.0,95,0.00,OVC,OVC,0.00,WeatherDisplay:10.34,2013-02-28 09:48:00,
2013-02-28 04:53:00,29.8,28.6,29.76,ENE,63,0.0,0.0,95,0.00,OVC,OVC,0.00,WeatherDisplay:10.34,2013-02-28 09:53:00,
2013-02-28 04:58:00,29.8,28.6,29.76,NNE,18,0.0,0.0,95,0.00,OVC,OVC,0.00,WeatherDisplay:10.34,2013-02-28 09:58:00,
2013-02-28 05:03:00,29.8,28.6,29.76,North,351,0.0,0.0,95,0.00,OVC,OVC,0.00,WeatherDisplay:10.34,2013-02-28 10:03:00,
2013-02-28 05:08:00,29.8,28.6,29.76,NNE,13,0.0,0.0,95,0.00,OVC,OVC,0.00,WeatherDisplay:10.34,2013-02-28 10:08:00,
2013-02-28 05:13:00,30.0,28.8,29.76,ENE,74,0.0,0.0,95,0.00,OVC,OVC,0.00,WeatherDisplay:10.34,2013-02-28 10:13:00,
2013-02-28 05:18:00,30.0,28.8,29.76,North,3,0.0,0.0,95,0.00,OVC,OVC,0.00,WeatherDisplay:10.34,2013-02-28 10:18:00,
2013-02-28 05:23:00,30.2,28.9,29.76,North,3,0.0,0.0,95,0.00,OVC,OVC,0.00,WeatherDisplay:10.34,2013-02-28 10:23:00,
2013-02-28 05:26:00,30.2,28.9,29.76,NNE,17,0.0,0.0,95,0.00,OVC,OVC,0.00,WeatherDisplay:10.34,2013-02-28 10:26:00,
2013-02-28 05:31:00,30.4,29.1,29.76,North,3,0.0,0.0,95,0.00,OVC,OVC,0.00,WeatherDisplay:10.34,2013-02-28 10:31:00,
2013-02-28 05:36:00,30.4,29.1,29.76,NNE,16,0.0,0.0,95,0.00,OVC,OVC,0.00,WeatherDisplay:10.34,2013-02-28 10:36:00,
2013-02-28 05:41:00,30.4,29.1,29.76,NNE,18,0.0,0.0,95,0.00,OVC,OVC,0.00,WeatherDisplay:10.34,2013-02-28 10:41:00,
2013-02-28 05:46:00,30.6,29.3,29.76,NNW,338,0.0,0.0,95,0.00,OVC,OVC,0.00,WeatherDisplay:10.34,2013-02-28 10:46:00,
2013-02-28 05:51:00,30.7,29.7,29.76,NNW,338,0.0,0.0,96,0.00,OVC,OVC,0.00,WeatherDisplay:10.34,2013-02-28 10:51:00,
2013-02-28 05:56:00,30.7,29.7,29.76,North,351,0.0,0.0,96,0.00,OVC,OVC,0.00,WeatherDisplay:10.34,2013-02-28 10:56:00,
2013-02-28 06:01:00,30.7,29.7,29.76,North,8,0.0,0.0,96,0.00,OVC,OVC,0.00,WeatherDisplay:10.34,2013-02-28 11:01:00,
2013-02-28 06:06:00,30.7,29.7,29.76,North,351,0.0,0.0,96,0.00,OVC,OVC,0.00,WeatherDisplay:10.34,2013-02-28 11:06:00,
2013-02-28 06:11:00,30.9,29.7,29.76,NNE,14,0.0,0.0,95,0.00,OVC,OVC,0.00,WeatherDisplay:10.34,2013-02-28 11:11:00,
2013-02-28 06:16:00,30.9,29.9,29.79,NNE,18,0.0,0.0,96,0.00,OVC,OVC,0.00,WeatherDisplay:10.34,2013-02-28 11:16:00,
2013-02-28 06:21:00,31.1,30.1,29.79,NNW,331,0.0,0.0,96,0.00,OVC,OVC,0.00,WeatherDisplay:10.34,2013-02-28 11:21:00,
2013-02-28 06:26:00,31.1,29.8,29.79,NNW,331,0.0,0.0,95,0.00,OVC,OVC,0.00,WeatherDisplay:10.34,2013-02-28 11:26:00,
2013-02-28 06:31:00,31.3,30.0,29.79,NNW,333,0.0,0.0,95,0.00,OVC,OVC,0.00,WeatherDisplay:10.34,2013-02-28 11:31:00,
2013-02-28 06:36:00,31.3,30.0,29.79,NNW,333,0.0,0.0,95,0.00,OVC,OVC,0.00,WeatherDisplay:10.34,2013-02-28 11:36:00,
2013-02-28 06:41:00,31.3,30.0,29.79,NNW,342,0.0,0.0,95,0.00,OVC,OVC,0.00,WeatherDisplay:10.34,2013-02-28 11:41:00,
2013-02-28 06:46:00,31.3,30.0,29.79,North,356,0.0,0.0,95,0.00,OVC,OVC,0.00,WeatherDisplay:10.34,2013-02-28 11:46:00,
2013-02-28 06:51:00,31.5,30.2,29.79,North,356,0.0,0.0,95,0.00,OVC,OVC,0.00,WeatherDisplay:10.34,2013-02-28 11:51:00,
2013-02-28 06:57:00,31.6,30.4,29.79,North,356,0.0,0.0,95,0.00,OVC,OVC,0.00,WeatherDisplay:10.34,2013-02-28 11:57:00,
2013-02-28 07:02:00,31.6,30.4,29.79,North,0,0.0,0.0,95,0.00,OVC,OVC,0.00,WeatherDisplay:10.34,2013-02-28 12:02:00,
2013-02-28 07:07:00,31.8,30.6,29.79,North,0,0.0,0.0,95,0.00,OVC,OVC,0.00,WeatherDisplay:10.34,2013-02-28 12:07:00,
2013-02-28 07:12:00,31.8,30.6,29.79,North,0,0.0,0.0,95,0.00,OVC,OVC,0.00,WeatherDisplay:10.34,2013-02-28 12:12:00,
2013-02-28 07:17:00,31.8,30.6,29.79,North,0,0.0,0.0,95,0.00,OVC,OVC,0.00,WeatherDisplay:10.34,2013-02-28 12:17:00,
2013-02-28 07:22:00,32.0,30.7,29.79,North,0,0.0,0.0,95,0.00,OVC,OVC,0.00,WeatherDisplay:10.34,2013-02-28 12:22:00,
2013-02-28 07:27:00,32.2,30.9,29.79,North,0,0.0,0.0,95,0.00,OVC,OVC,0.00,WeatherDisplay:10.34,2013-02-28 12:27:00,
2013-02-28 07:32:00,32.2,30.9,29.79,North,0,0.0,0.0,95,0.00,OVC,OVC,0.00,WeatherDisplay:10.34,2013-02-28 12:32:00,
2013-02-28 07:37:00,32.4,31.1,29.79,North,0,0.0,0.0,95,0.00,OVC,OVC,0.00,WeatherDisplay:10.34,2013-02-28 12:37:00,
2013-02-28 07:42:00,32.7,31.4,29.79,North,0,0.0,0.0,95,0.00,OVC,OVC,0.00,WeatherDisplay:10.34,2013-02-28 12:42:00,
2013-02-28 07:47:00,32.9,31.6,29.79,North,0,0.0,0.0,95,0.00,OVC,OVC,0.00,WeatherDisplay:10.34,2013-02-28 12:47:00,
2013-02-28 07:52:00,33.3,32.0,29.78,North,0,0.0,0.0,95,0.00,OVC,OVC,0.00,WeatherDisplay:10.34,2013-02-28 12:52:00,
2013-02-28 07:57:00,33.3,32.0,29.78,North,1,0.0,0.0,95,0.00,OVC,OVC,0.00,WeatherDisplay:10.34,2013-02-28 12:57:00,
2013-02-28 08:02:00,33.3,32.0,29.78,North,0,0.0,0.0,95,0.00,OVC,OVC,0.00,WeatherDisplay:10.34,2013-02-28 13:02:00,
2013-02-28 08:07:00,33.1,31.5,29.78,North,0,0.0,0.0,94,0.00,OVC,OVC,0.00,WeatherDisplay:10.34,2013-02-28 13:07:00,
2013-02-28 08:12:00,33.1,31.5,29.78,North,0,0.0,0.0,94,0.00,OVC,OVC,0.00,WeatherDisplay:10.34,2013-02-28 13:12:00,
2013-02-28 08:17:00,33.1,31.5,29.78,North,0,0.0,0.0,94,0.00,OVC,OVC,0.00,WeatherDisplay:10.34,2013-02-28 13:17:00,
2013-02-28 08:22:00,32.9,31.4,29.79,North,0,0.0,0.0,94,0.00,OVC,OVC,0.04,WeatherDisplay:10.34,2013-02-28 13:22:00,
2013-02-28 08:27:00,33.1,31.5,29.79,North,0,0.0,0.0,94,0.04,RA,RA,0.04,WeatherDisplay:10.34,2013-02-28 13:27:00,
2013-02-28 08:32:00,33.3,31.7,29.75,North,0,0.0,0.0,94,0.04,RA,RA,0.04,WeatherDisplay:10.34,2013-02-28 13:32:00,
2013-02-28 08:37:00,33.3,31.7,29.75,North,0,0.0,0.0,94,0.04,OVC,OVC,0.04,WeatherDisplay:10.34,2013-02-28 13:37:00,
2013-02-28 08:42:00,33.3,31.5,29.75,North,0,0.0,0.0,93,0.04,OVC,OVC,0.04,WeatherDisplay:10.34,2013-02-28 13:42:00,
2013-02-28 08:47:00,33.4,31.6,29.75,North,0,0.0,0.0,93,0.04,OVC,OVC,0.04,WeatherDisplay:10.34,2013-02-28 13:47:00,
2013-02-28 08:52:00,33.6,31.8,29.75,North,0,0.0,0.0,93,0.04,OVC,OVC,0.04,WeatherDisplay:10.34,2013-02-28 13:52:00,
2013-02-28 08:57:00,33.8,32.0,29.75,North,0,0.0,0.0,93,0.04,OVC,OVC,0.04,WeatherDisplay:10.34,2013-02-28 13:57:00,
2013-02-28 09:02:00,34.0,32.2,29.75,North,0,0.0,0.0,93,0.04,CLR,CLR,0.04,WeatherDisplay:10.34,2013-02-28 14:02:00,
2013-02-28 09:07:00,34.0,32.2,29.75,North,0,0.0,0.0,93,0.04,CLR,CLR,0.04,WeatherDisplay:10.34,2013-02-28 14:07:00,
2013-02-28 09:12:00,34.0,32.2,29.75,North,0,0.0,0.0,93,0.04,CLR,CLR,0.04,WeatherDisplay:10.34,2013-02-28 14:12:00,
2013-02-28 09:17:00,34.0,31.9,29.75,North,0,0.0,0.0,92,0.04,CLR,CLR,0.04,WeatherDisplay:10.34,2013-02-28 14:17:00,
2013-02-28 09:22:00,34.2,32.1,29.75,North,0,0.0,0.0,92,0.00,CLR,CLR,0.04,WeatherDisplay:10.34,2013-02-28 14:22:00,
2013-02-28 09:27:00,34.2,32.1,29.75,North,0,0.0,0.0,92,0.00,CLR,CLR,0.04,WeatherDisplay:10.34,2013-02-28 14:27:00,
2013-02-28 09:32:00,34.3,32.3,29.75,North,0,0.0,0.0,92,0.00,CLR,CLR,0.04,WeatherDisplay:10.34,2013-02-28 14:32:00,
2013-02-28 09:37:00,34.5,32.4,29.75,North,0,0.0,0.0,92,0.00,CLR,CLR,0.04,WeatherDisplay:10.34,2013-02-28 14:37:00,
2013-02-28 09:42:00,34.5,32.2,29.75,North,0,0.0,0.0,91,0.00,CLR,CLR,0.04,WeatherDisplay:10.34,2013-02-28 14:42:00,
2013-02-28 09:47:00,34.9,32.5,29.75,North,0,0.0,0.0,91,0.00,CLR,CLR,0.04,WeatherDisplay:10.34,2013-02-28 14:47:00,
2013-02-28 09:52:00,35.1,32.7,29.75,North,0,0.0,0.0,91,0.00,CLR,CLR,0.04,WeatherDisplay:10.34,2013-02-28 14:52:00,
2013-02-28 09:57:00,35.4,33.1,29.75,North,0,0.0,0.0,91,0.00,CLR,CLR,0.04,WeatherDisplay:10.34,2013-02-28 14:57:00,
2013-02-28 10:02:00,36.0,33.6,29.75,NNE,13,0.0,3.0,91,0.00,CLR,CLR,0.04,WeatherDisplay:10.34,2013-02-28 15:02:00,
2013-02-28 10:07:00,36.1,33.8,29.75,NNE,13,0.0,0.0,91,0.00,CLR,CLR,0.04,WeatherDisplay:10.34,2013-02-28 15:07:00,
2013-02-28 10:12:00,36.3,33.7,29.75,NNE,13,0.0,0.0,90,0.00,CLR,CLR,0.04,WeatherDisplay:10.34,2013-02-28 15:12:00,
2013-02-28 10:17:00,36.3,33.7,29.78,North,10,0.0,2.0,90,0.00,CLR,CLR,0.04,WeatherDisplay:10.34,2013-02-28 15:17:00,
2013-02-28 10:22:00,36.1,33.2,29.78,NW,326,3.0,6.0,89,0.00,CLR,CLR,0.04,WeatherDisplay:10.34,2013-02-28 15:22:00,
2013-02-28 10:27:00,36.1,32.9,29.78,NW,326,0.0,0.0,88,0.00,CLR,CLR,0.04,WeatherDisplay:10.34,2013-02-28 15:27:00,
2013-02-28 10:32:00,36.1,32.9,29.78,NNW,335,0.0,2.0,88,0.00,CLR,CLR,0.04,WeatherDisplay:10.34,2013-02-28 15:32:00,
2013-02-28 10:37:00,36.3,32.8,29.78,NNW,335,0.0,3.0,87,0.00,CLR,CLR,0.04,WeatherDisplay:10.34,2013-02-28 15:37:00,
2013-02-28 10:43:00,36.5,33.0,29.78,NNW,335,0.0,0.0,87,0.00,CLR,CLR,0.04,WeatherDisplay:10.34,2013-02-28 15:43:00,
2013-02-28 10:48:00,36.7,32.9,29.78,NNW,335,0.0,0.0,86,0.00,CLR,CLR,0.04,WeatherDisplay:10.34,2013-02-28 15:48:00,
2013-02-28 10:53:00,36.7,32.6,29.78,NNW,335,3.0,3.0,85,0.00,CLR,CLR,0.04,WeatherDisplay:10.34,2013-02-28 15:53:00,
2013-02-28 10:58:00,36.7,32.6,29.78,North,2,0.0,2.0,85,0.00,CLR,CLR,0.04,WeatherDisplay:10.34,2013-02-28 15:58:00,
2013-02-28 11:03:00,36.9,32.5,29.78,North,2,0.0,0.0,84,0.00,CLR,CLR,0.04,WeatherDisplay:10.34,2013-02-28 16:03:00,
2013-02-28 11:08:00,37.2,32.5,29.78,ESE,102,0.0,3.0,83,0.00,CLR,CLR,0.04,WeatherDisplay:10.34,2013-02-28 16:08:00,
2013-02-28 11:13:00,37.6,32.9,29.78,North,11,0.0,3.0,83,0.00,CLR,CLR,0.04,WeatherDisplay:10.34,2013-02-28 16:13:00,
2013-02-28 11:18:00,37.8,32.8,29.78,NNW,341,0.0,3.0,82,0.00,CLR,CLR,0.04,WeatherDisplay:10.34,2013-02-28 16:18:00,
2013-02-28 11:23:00,37.9,32.9,29.78,NNW,341,0.0,5.0,82,0.00,CLR,CLR,0.04,WeatherDisplay:10.34,2013-02-28 16:23:00,
2013-02-28 11:28:00,38.1,32.8,29.78,North,351,0.0,3.0,81,0.00,CLR,CLR,0.04,WeatherDisplay:10.34,2013-02-28 16:28:00,
2013-02-28 11:34:00,38.3,32.7,29.78,North,351,0.0,2.0,80,0.00,CLR,CLR,0.04,WeatherDisplay:10.34,2013-02-28 16:34:00,
2013-02-28 11:40:00,38.7,32.7,29.78,NNE,20,0.0,3.0,79,0.04,RA,RA,0.08,WeatherDisplay:10.34,2013-02-28 16:40:00,
2013-02-28 11:45:00,38.7,32.4,29.78,NNE,20,0.0,0.0,78,0.08,RA,RA,0.12,WeatherDisplay:10.34,2013-02-28 16:45:00,
2013-02-28 13:49:00,38.7,31.4,29.72,NNE,19,0.0,0.0,75,0.08,RA,RA,0.12,WeatherDisplay:10.34,2013-02-28 18:49:00,
2013-02-28 13:54:00,38.8,31.9,29.72,NNE,19,0.0,0.0,76,0.08,RA,RA,0.12,WeatherDisplay:10.34,2013-02-28 18:54:00,
2013-02-28 13:59:00,39.2,32.3,29.72,ENE,57,0.0,5.0,76,0.08,CLR,CLR,0.12,WeatherDisplay:10.34,2013-02-28 18:59:00,
2013-02-28 14:04:00,39.2,31.9,29.72,NNE,22,0.0,0.0,75,0.08,CLR,CLR,0.12,WeatherDisplay:10.34,2013-02-28 19:04:00,
2013-02-28 14:09:00,39.4,32.4,29.72,NNW,345,4.0,5.0,76,0.08,CLR,CLR,0.12,WeatherDisplay:10.34,2013-02-28 19:09:00,
2013-02-28 14:14:00,39.6,32.6,29.72,North,7,0.0,2.0,76,0.08,CLR,CLR,0.12,WeatherDisplay:10.34,2013-02-28 19:14:00,
2013-02-28 14:19:00,39.6,32.3,29.72,NNE,16,0.0,2.0,75,0.08,CLR,CLR,0.12,WeatherDisplay:10.34,2013-02-28 19:19:00,
2013-02-28 14:24:00,39.4,32.1,29.72,North,351,0.0,0.0,75,0.08,CLR,CLR,0.12,WeatherDisplay:10.34,2013-02-28 19:24:00,
2013-02-28 14:29:00,39.2,31.9,29.72,North,3,4.0,6.0,75,0.08,CLR,CLR,0.12,WeatherDisplay:10.34,2013-02-28 19:29:00,
2013-02-28 14:34:00,39.2,31.9,29.72,NNE,24,0.0,0.0,75,0.08,CLR,CLR,0.12,WeatherDisplay:10.34,2013-02-28 19:34:00,
2013-02-28 14:40:00,39.2,31.9,29.72,NNE,24,0.0,2.0,75,0.04,CLR,CLR,0.12,WeatherDisplay:10.34,2013-02-28 19:40:00,
2013-02-28 14:45:00,39.4,32.1,29.72,NNE,24,0.0,3.0,75,0.04,CLR,CLR,0.12,WeatherDisplay:10.34,2013-02-28 19:45:00,
2013-02-28 14:50:00,39.2,31.9,29.72,NNE,24,3.0,5.0,75,0.00,CLR,CLR,0.12,WeatherDisplay:10.34,2013-02-28 19:50:00,
2013-02-28 14:55:00,39.2,31.9,29.72,NNE,22,0.0,0.0,75,0.00,CLR,CLR,0.12,WeatherDisplay:10.34,2013-02-28 19:55:00,
2013-02-28 15:00:00,39.0,31.8,29.72,NNE,33,3.0,3.0,75,0.00,CLR,CLR,0.12,WeatherDisplay:10.34,2013-02-28 20:00:00,
2013-02-28 15:05:00,39.0,31.8,29.72,NNE,33,0.0,5.0,75,0.00,BKN,BKN,0.12,WeatherDisplay:10.34,2013-02-28 20:05:00,
2013-02-28 15:10:00,38.8,31.6,29.72,NNE,33,0.0,3.0,75,0.00,BKN,BKN,0.12,WeatherDisplay:10.34,2013-02-28 20:10:00,
2013-02-28 15:15:00,38.8,31.6,29.72,NNE,32,0.0,0.0,75,0.04,RA,RA,0.16,WeatherDisplay:10.34,2013-02-28 20:15:00,
2013-02-28 15:20:00,38.8,31.6,29.72,NNE,32,0.0,0.0,75,0.04,RA,RA,0.16,WeatherDisplay:10.34,2013-02-28 20:20:00,
2013-02-28 15:26:00,38.7,31.7,29.72,NNE,32,0.0,0.0,76,0.04,BKN,BKN,0.16,WeatherDisplay:10.34,2013-02-28 20:26:00,
2013-02-28 15:31:00,38.7,31.7,29.72,NNE,32,0.0,6.0,76,0.04,BKN,BKN,0.16,WeatherDisplay:10.34,2013-02-28 20:31:00,
2013-02-28 15:36:00,38.5,31.6,29.72,NNE,32,3.0,5.0,76,0.04,BKN,BKN,0.16,WeatherDisplay:10.34,2013-02-28 20:36:00,
2013-02-28 15:41:00,38.1,31.2,29.72,NNE,32,0.0,3.0,76,0.04,BKN,BKN,0.16,WeatherDisplay:10.34,2013-02-28 20:41:00,
2013-02-28 15:46:00,38.1,31.5,29.72,NNE,32,0.0,0.0,77,0.04,BKN,BKN,0.16,WeatherDisplay:10.34,2013-02-28 20:46:00,
2013-02-28 15:51:00,37.9,31.4,29.72,NNE,32,0.0,0.0,77,0.04,BKN,BKN,0.16,WeatherDisplay:10.34,2013-02-28 20:51:00,
2013-02-28 15:56:00,37.9,31.4,29.72,ESE,120,4.0,5.0,77,0.04,BKN,BKN,0.16,WeatherDisplay:10.34,2013-02-28 20:56:00,
2013-02-28 16:01:00,37.8,31.2,29.72,ESE,120,0.0,2.0,77,0.04,BKN,BKN,0.16,WeatherDisplay:10.34,2013-02-28 21:01:00,
2013-02-28 16:06:00,37.8,31.2,29.72,ESE,120,0.0,2.0,77,0.04,BKN,BKN,0.16,WeatherDisplay:10.34,2013-02-28 21:06:00,
2013-02-28 16:11:00,37.6,31.3,29.72,ESE,113,0.0,2.0,78,0.04,BKN,BKN,0.16,WeatherDisplay:10.34,2013-02-28 21:11:00,
2013-02-28 16:16:00,37.6,31.3,29.72,ESE,113,0.0,0.0,78,0.00,BKN,BKN,0.16,WeatherDisplay:10.34,2013-02-28 21:16:00,
2013-02-28 16:21:00,37.4,31.2,29.72,ESE,113,0.0,2.0,78,0.00,BKN,BKN,0.16,WeatherDisplay:10.34,2013-02-28 21:21:00,
2013-02-28 16:26:00,37.0,30.8,29.72,ESE,113,0.0,0.0,78,0.00,BKN,BKN,0.16,WeatherDisplay:10.34,2013-02-28 21:26:00,
2013-02-28 16:31:00,37.0,30.8,29.72,ESE,113,0.0,0.0,78,0.00,BKN,BKN,0.16,WeatherDisplay:10.34,2013-02-28 21:31:00,
2013-02-28 16:36:00,36.9,31.0,29.72,ESE,113,0.0,0.0,79,0.00,BKN,BKN,0.16,WeatherDisplay:10.34,2013-02-28 21:36:00,
2013-02-28 16:41:00,36.9,31.0,29.72,ESE,113,0.0,0.0,79,0.00,BKN,BKN,0.16,WeatherDisplay:10.34,2013-02-28 21:41:00,
2013-02-28 16:46:00,36.9,31.0,29.72,ESE,113,0.0,0.0,79,0.00,BKN,BKN,0.16,WeatherDisplay:10.34,2013-02-28 21:46:00,
2013-02-28 16:51:00,36.9,31.0,29.72,ESE,113,0.0,0.0,79,0.00,BKN,BKN,0.16,WeatherDisplay:10.34,2013-02-28 21:51:00,
2013-02-28 16:57:00,36.7,31.1,29.72,ESE,113,0.0,0.0,80,0.00,BKN,BKN,0.16,WeatherDisplay:10.34,2013-02-28 21:57:00,
2013-02-28 17:02:00,36.7,31.1,29.72,ESE,113,0.0,3.0,80,0.00,BKN,BKN,0.16,WeatherDisplay:10.34,2013-02-28 22:02:00,
2013-02-28 17:07:00,36.5,30.9,29.72,ESE,113,0.0,3.0,80,0.00,BKN,BKN,0.16,WeatherDisplay:10.34,2013-02-28 22:07:00,
2013-02-28 17:12:00,36.3,31.0,29.72,ESE,113,0.0,2.0,81,0.00,BKN,BKN,0.16,WeatherDisplay:10.34,2013-02-28 22:12:00,
2013-02-28 17:17:00,36.1,30.9,29.72,ESE,113,0.0,2.0,81,0.00,BKN,BKN,0.16,WeatherDisplay:10.34,2013-02-28 22:17:00,
2013-02-28 17:23:00,36.1,31.2,29.72,ESE,113,0.0,0.0,82,0.00,BKN,BKN,0.16,WeatherDisplay:10.34,2013-02-28 22:23:00,
2013-02-28 17:28:00,36.0,31.0,29.72,ESE,113,0.0,0.0,82,0.04,RA,RA,0.20,WeatherDisplay:10.34,2013-02-28 22:28:00,
2013-02-28 17:33:00,35.8,30.8,29.72,ESE,113,0.0,0.0,82,0.04,RA,RA,0.20,WeatherDisplay:10.34,2013-02-28 22:33:00,
2013-02-28 17:38:00,35.8,31.1,29.72,ESE,113,0.0,0.0,83,0.04,BKN,BKN,0.20,WeatherDisplay:10.34,2013-02-28 22:38:00,
2013-02-28 17:43:00,35.8,31.1,29.72,ESE,113,0.0,0.0,83,0.04,BKN,BKN,0.20,WeatherDisplay:10.34,2013-02-28 22:43:00,
2013-02-28 17:48:00,35.6,30.9,29.72,ESE,113,0.0,0.0,83,0.04,BKN,BKN,0.20,WeatherDisplay:10.34,2013-02-28 22:48:00,
2013-02-28 17:53:00,35.4,30.8,29.72,ESE,109,0.0,3.0,83,0.04,BKN,BKN,0.20,WeatherDisplay:10.34,2013-02-28 22:53:00,
2013-02-28 17:58:00,35.4,31.1,29.72,ESE,109,0.0,0.0,84,0.04,BKN,BKN,0.20,WeatherDisplay:10.34,2013-02-28 22:58:00,
2013-02-28 18:03:00,35.4,31.1,29.72,East,100,0.0,0.0,84,0.04,BKN,BKN,0.20,WeatherDisplay:10.34,2013-02-28 23:03:00,
2013-02-28 18:08:00,35.4,31.1,29.72,East,100,0.0,0.0,84,0.04,BKN,BKN,0.20,WeatherDisplay:10.34,2013-02-28 23:08:00,
2013-02-28 18:13:00,35.4,31.4,29.75,ENE,67,0.0,2.0,85,0.04,BKN,BKN,0.20,WeatherDisplay:10.34,2013-02-28 23:13:00,
2013-02-28 18:18:00,35.2,31.2,29.75,ENE,71,0.0,0.0,85,0.04,BKN,BKN,0.20,WeatherDisplay:10.34,2013-02-28 23:18:00,
2013-02-28 18:23:00,35.2,31.2,29.75,ENE,70,0.0,3.0,85,0.04,BKN,BKN,0.20,WeatherDisplay:10.34,2013-02-28 23:23:00,
2013-02-28 18:28:00,35.2,31.5,29.75,ENE,69,0.0,5.0,86,0.00,BKN,BKN,0.20,WeatherDisplay:10.34,2013-02-28 23:28:00,
2013-02-28 18:33:00,35.1,31.3,29.75,ENE,68,0.0,0.0,86,0.00,BKN,BKN,0.20,WeatherDisplay:10.34,2013-02-28 23:33:00,
2013-02-28 18:38:00,35.1,31.3,29.75,ENE,69,3.0,6.0,86,0.00,BKN,BKN,0.20,WeatherDisplay:10.34,2013-02-28 23:38:00,
2013-02-28 18:43:00,34.9,31.1,29.75,ENE,70,4.0,4.0,86,0.00,BKN,BKN,0.20,WeatherDisplay:10.34,2013-02-28 23:43:00,
2013-02-28 18:48:00,34.9,31.1,29.75,ENE,70,0.0,3.0,86,0.00,BKN,BKN,0.20,WeatherDisplay:10.34,2013-02-28 23:48:00,
2013-02-28 18:53:00,34.9,31.4,29.75,ENE,70,0.0,3.0,87,0.00,BKN,BKN,0.20,WeatherDisplay:10.34,2013-02-28 23:53:00,
2013-02-28 18:59:00,34.9,31.4,29.75,ENE,70,0.0,3.0,87,0.00,BKN,BKN,0.20,WeatherDisplay:10.34,2013-02-28 23:59:00,
2013-02-28 19:04:00,34.9,31.4,29.75,ENE,70,0.0,2.0,87,0.08,RA,RA,0.28,WeatherDisplay:10.34,2013-03-01 00:04:00,
2013-02-28 19:09:00,34.7,31.2,29.75,ENE,70,0.0,0.0,87,0.08,RA,RA,0.28,WeatherDisplay:10.34,2013-03-01 00:09:00,
2013-02-28 19:14:00,34.7,31.5,29.75,ENE,70,0.0,0.0,88,0.08,BKN,BKN,0.28,WeatherDisplay:10.34,2013-03-01 00:14:00,
2013-02-28 19:19:00,34.5,31.3,29.75,ENE,70,0.0,0.0,88,0.08,BKN,BKN,0.28,WeatherDisplay:10.34,2013-03-01 00:19:00,
2013-02-28 19:24:00,34.5,31.3,29.75,ENE,70,0.0,0.0,88,0.08,BKN,BKN,0.28,WeatherDisplay:10.34,2013-03-01 00:24:00,
2013-02-28 19:29:00,34.5,31.3,29.72,ENE,70,0.0,0.0,88,0.08,BKN,BKN,0.28,WeatherDisplay:10.34,2013-03-01 00:29:00,
2013-02-28 19:34:00,34.3,31.2,29.72,ENE,70,0.0,0.0,88,0.08,BKN,BKN,0.28,WeatherDisplay:10.34,2013-03-01 00:34:00,
2013-02-28 19:39:00,34.3,31.2,29.72,ENE,69,0.0,0.0,88,0.08,BKN,BKN,0.28,WeatherDisplay:10.34,2013-03-01 00:39:00,
2013-02-28 19:44:00,34.2,31.0,29.72,ENE,70,0.0,0.0,88,0.08,BKN,BKN,0.28,WeatherDisplay:10.34,2013-03-01 00:44:00,
2013-02-28 19:49:00,34.0,30.8,29.72,ENE,70,0.0,0.0,88,0.08,BKN,BKN,0.31,WeatherDisplay:10.34,2013-03-01 00:49:00,
2013-02-28 19:55:00,34.0,30.8,29.72,ENE,70,0.0,0.0,88,0.12,RA,RA,0.31,WeatherDisplay:10.34,2013-03-01 00:55:00,
2013-02-28 20:00:00,34.0,30.8,29.75,ENE,70,0.0,0.0,88,0.12,BKN,BKN,0.31,WeatherDisplay:10.34,2013-03-01 01:00:00,
2013-02-28 20:05:00,34.0,30.8,29.75,ENE,69,0.0,0.0,88,0.04,BKN,BKN,0.31,WeatherDisplay:10.34,2013-03-01 01:05:00,
2013-02-28 20:10:00,33.8,30.6,29.75,ENE,70,0.0,0.0,88,0.04,BKN,BKN,0.31,WeatherDisplay:10.34,2013-03-01 01:10:00,
2013-02-28 20:15:00,33.6,30.4,29.75,ENE,70,0.0,0.0,88,0.04,BKN,BKN,0.31,WeatherDisplay:10.34,2013-03-01 01:15:00,
2013-02-28 20:20:00,33.4,30.3,29.75,ENE,70,0.0,0.0,88,0.04,BKN,BKN,0.31,WeatherDisplay:10.34,2013-03-01 01:20:00,
2013-02-28 20:25:00,33.4,30.3,29.75,ENE,70,0.0,0.0,88,0.04,BKN,BKN,0.31,WeatherDisplay:10.34,2013-03-01 01:25:00,
2013-02-28 20:30:00,33.4,30.5,29.75,ENE,70,0.0,2.0,89,0.04,BKN,BKN,0.31,WeatherDisplay:10.34,2013-03-01 01:30:00,
2013-02-28 20:35:00,33.4,30.5,29.75,ENE,70,0.0,0.0,89,0.04,BKN,BKN,0.31,WeatherDisplay:10.34,2013-03-01 01:35:00,
2013-02-28 20:40:00,33.4,30.5,29.75,ENE,72,0.0,0.0,89,0.04,BKN,BKN,0.31,WeatherDisplay:10.34,2013-03-01 01:40:00,
2013-02-28 20:45:00,33.3,30.4,29.75,ENE,72,0.0,0.0,89,0.04,BKN,BKN,0.31,WeatherDisplay:10.34,2013-03-01 01:45:00,
2013-02-28 20:50:00,33.3,30.4,29.75,ENE,72,0.0,0.0,89,0.00,BKN,BKN,0.31,WeatherDisplay:10.34,2013-03-01 01:50:00,
2013-02-28 20:55:00,33.3,30.4,29.75,ENE,72,0.0,0.0,89,0.00,BKN,BKN,0.31,WeatherDisplay:10.34,2013-03-01 01:55:00,
2013-02-28 21:00:00,33.1,30.2,29.75,ENE,72,0.0,0.0,89,0.00,BKN,BKN,0.31,WeatherDisplay:10.34,2013-03-01 02:00:00,
2013-02-28 21:05:00,33.3,30.4,29.75,ENE,72,0.0,0.0,89,0.00,BKN,BKN,0.31,WeatherDisplay:10.34,2013-03-01 02:05:00,
2013-02-28 21:10:00,33.3,30.4,29.75,ENE,72,0.0,0.0,89,0.00,BKN,BKN,0.31,WeatherDisplay:10.34,2013-03-01 02:10:00,
2013-02-28 21:15:00,33.3,30.6,29.75,ENE,72,0.0,0.0,90,0.00,BKN,BKN,0.31,WeatherDisplay:10.34,2013-03-01 02:15:00,
2013-02-28 21:20:00,33.3,30.6,29.75,ENE,72,0.0,0.0,90,0.00,BKN,BKN,0.31,WeatherDisplay:10.34,2013-03-01 02:20:00,
2013-02-28 21:25:00,33.3,30.6,29.75,ENE,72,0.0,0.0,90,0.00,BKN,BKN,0.31,WeatherDisplay:10.34,2013-03-01 02:25:00,
2013-02-28 21:30:00,33.3,30.6,29.75,ENE,72,0.0,2.0,90,0.00,BKN,BKN,0.31,WeatherDisplay:10.34,2013-03-01 02:30:00,
2013-02-28 21:35:00,33.3,30.6,29.75,ENE,72,0.0,0.0,90,0.00,BKN,BKN,0.31,WeatherDisplay:10.34,2013-03-01 02:35:00,
2013-02-28 21:40:00,33.3,30.6,29.75,ENE,72,0.0,0.0,90,0.00,BKN,BKN,0.31,WeatherDisplay:10.34,2013-03-01 02:40:00,
2013-02-28 21:45:00,33.1,30.5,29.75,ENE,72,0.0,0.0,90,0.00,BKN,BKN,0.31,WeatherDisplay:10.34,2013-03-01 02:45:00,
2013-02-28 21:50:00,33.1,30.5,29.75,ENE,72,0.0,0.0,90,0.00,BKN,BKN,0.31,WeatherDisplay:10.34,2013-03-01 02:50:00,
2013-02-28 21:55:00,33.1,30.5,29.75,ENE,72,0.0,0.0,90,0.00,BKN,BKN,0.31,WeatherDisplay:10.34,2013-03-01 02:55:00,
2013-02-28 22:00:00,33.1,30.5,29.72,ENE,72,0.0,0.0,90,0.00,BKN,BKN,0.31,WeatherDisplay:10.34,2013-03-01 03:00:00,
2013-02-28 22:05:00,33.3,30.6,29.72,ENE,72,0.0,0.0,90,0.00,BKN,BKN,0.31,WeatherDisplay:10.34,2013-03-01 03:05:00,
2013-02-28 22:10:00,33.3,30.6,29.72,ENE,72,0.0,0.0,90,0.00,BKN,BKN,0.31,WeatherDisplay:10.34,2013-03-01 03:10:00,
2013-02-28 22:15:00,33.4,31.1,29.72,ENE,72,0.0,0.0,91,0.00,BKN,BKN,0.31,WeatherDisplay:10.34,2013-03-01 03:15:00,
2013-02-28 22:20:00,33.4,31.1,29.72,ENE,72,0.0,0.0,91,0.00,BKN,BKN,0.31,WeatherDisplay:10.34,2013-03-01 03:20:00,
2013-02-28 22:25:00,33.4,31.1,29.72,ENE,72,0.0,0.0,91,0.00,BKN,BKN,0.31,WeatherDisplay:10.34,2013-03-01 03:25:00,
2013-02-28 22:30:00,33.3,30.6,29.72,ENE,72,0.0,0.0,90,0.00,BKN,BKN,0.31,WeatherDisplay:10.34,2013-03-01 03:30:00,
2013-02-28 22:35:00,33.3,30.6,29.72,ENE,72,0.0,0.0,90,0.00,BKN,BKN,0.31,WeatherDisplay:10.34,2013-03-01 03:35:00,
2013-02-28 22:40:00,33.4,31.1,29.72,ENE,72,0.0,0.0,91,0.00,BKN,BKN,0.31,WeatherDisplay:10.34,2013-03-01 03:40:00,
2013-02-28 22:45:00,33.4,31.1,29.72,ENE,71,0.0,0.0,91,0.00,BKN,BKN,0.31,WeatherDisplay:10.34,2013-03-01 03:45:00,
2013-02-28 22:50:00,33.4,31.1,29.72,ENE,71,0.0,0.0,91,0.00,BKN,BKN,0.31,WeatherDisplay:10.34,2013-03-01 03:50:00,
2013-02-28 22:55:00,33.3,30.9,29.72,ENE,71,0.0,3.0,91,0.00,BKN,BKN,0.31,WeatherDisplay:10.34,2013-03-01 03:55:00,
2013-02-28 23:00:00,33.4,31.1,29.72,ENE,71,0.0,0.0,91,0.00,BKN,BKN,0.31,WeatherDisplay:10.34,2013-03-01 04:00:00,
2013-02-28 23:05:00,33.4,31.1,29.72,ENE,70,0.0,0.0,91,0.00,BKN,BKN,0.31,WeatherDisplay:10.34,2013-03-01 04:05:00,
2013-02-28 23:10:00,33.3,30.9,29.72,ENE,71,0.0,0.0,91,0.00,BKN,BKN,0.31,WeatherDisplay:10.34,2013-03-01 04:10:00,
2013-02-28 23:15:00,33.3,30.9,29.72,ENE,71,0.0,3.0,91,0.00,BKN,BKN,0.31,WeatherDisplay:10.34,2013-03-01 04:15:00,
2013-02-28 23:20:00,33.3,30.9,29.72,ENE,70,0.0,2.0,91,0.00,BKN,BKN,0.31,WeatherDisplay:10.34,2013-03-01 04:20:00,
2013-02-28 23:25:00,33.1,30.5,29.72,ENE,70,0.0,0.0,90,0.00,BKN,BKN,0.31,WeatherDisplay:10.34,2013-03-01 04:25:00,
2013-02-28 23:30:00,33.1,30.7,29.72,ENE,70,0.0,0.0,91,0.00,BKN,BKN,0.31,WeatherDisplay:10.34,2013-03-01 04:30:00,
2013-02-28 23:35:00,33.1,30.7,29.72,ENE,70,0.0,0.0,91,0.00,BKN,BKN,0.31,WeatherDisplay:10.34,2013-03-01 04:35:00,
2013-02-28 23:40:00,33.1,30.7,29.72,ENE,71,0.0,0.0,91,0.00,BKN,BKN,0.31,WeatherDisplay:10.34,2013-03-01 04:40:00,
2013-02-28 23:45:00,33.1,30.7,29.72,ENE,71,0.0,0.0,91,0.00,BKN,BKN,0.31,WeatherDisplay:10.34,2013-03-01 04:45:00,
2013-02-28 23:50:00,33.1,30.5,29.72,ENE,70,0.0,0.0,90,0.00,BKN,BKN,0.31,WeatherDisplay:10.34,2013-03-01 04:50:00,
2013-02-28 23:55:00,33.1,30.5,29.72,ENE,71,0.0,0.0,90,0.00,BKN,BKN,0.31,WeatherDisplay:10.34,2013-03-01 04:55:00,